Disclaimer

Please do not use the information listed here in-flight or in-navigation, as they are not provided to us by the airports but are provided by volunteers, so they might be outdated.

Search


Regions


Airport information page

Radio informations:
Tower (TWR) - 128.0 MHz
Automatic Terminal Information Service (ATIS) - 126.4 MHz

Airport informations:
Latitude: 51° 47' 44.83" N
Longitude: 055° 27' 24.28" E
Elevation: 387 feet - 118 meters
Operating hours: 24 hour operations
Operating agency: Civil government, landing fees and diplomatic clearance may be required
Timezone: UTC+5(+6DT) - Last Sunday in March to last Sunday in October
Fuel: N/A

Runway information:
08/26 - 8206 x 138 feet< - >2501 x 42 meters

Recent METARs:
UWOO 190030Z 00000MPS CAVOK M10/M14 Q1026 R26/60D NOSIG RMK QFE759/1012
UWOO 190100Z 00000MPS CAVOK M12/M15 Q1026 R26/60D NOSIG RMK QFE759/1012
UWOO 190130Z 00000MPS CAVOK M13/M16 Q1026 R26/CLRD60 NOSIG RMK QFE759/1012

Airport on the map: